»·PEaware :: AAL1200 KDFW-KDCA

AAL1200 :: KDFW-KDCA

FLIGHT INFORMATION

Flight Status: Arrived
Operator:
American Airlines
More flights by this operator :: More flights under this callsign
Pilot: Drew Leevy (13237)
Aircraft: AIRBUS A320
(A320)
More flights by this aircraft type
Origin: KDFW Dallas-Ft Worth Intl
United States
Destination: KDCA Ronald Reagan Washington Natl
United States
More flights between these airports :: More routes between these airports
Route:
File this flight plan on PilotEdge
Remarks:
Altitude:
(Current/Filed)
35,000ft
Speed:
(Current/Filed)
134kts
Departed: 13-May-17 05:15 PM
Arrived: 13-May-17 06:47 PM
Distance/Time
Traveled:
1033nm/1:32
Distance/Time
To Go:
Arrived

Flight Plot

Page will automatically refresh every two minutes.

Flight plan parsing failed; only flown route is shown


Map Options




Map Legend


Flown Route
Filed Route
Departure Airport
Arrival Airport
Navaid (VOR, NDB)
Fix

Horizontal Profiles

Position Reports

Time Latitude Longitude Heading Altitude Ground
Speed
13-May-17 17:16 35.205191 -89.450923 63 34971ft 488kts
13-May-17 17:17 35.258142 -89.300865 63 34970ft 488kts
13-May-17 17:18 35.311575 -89.148729 63 34968ft 488kts
13-May-17 17:19 35.364795 -88.996526 63 34967ft 488kts
13-May-17 17:20 35.417972 -88.843696 63 34967ft 488kts
13-May-17 17:21 35.470855 -88.690957 63 34968ft 488kts
13-May-17 17:22 35.523452 -88.538283 63 35063ft 487kts
13-May-17 17:23 35.575744 -88.385305 64 35111ft 487kts
13-May-17 17:24 35.625966 -88.236356 64 35110ft 487kts
13-May-17 17:25 35.677455 -88.082997 64 35104ft 487kts
13-May-17 17:26 35.728995 -87.928712 64 35101ft 487kts
13-May-17 17:27 35.779556 -87.776592 64 35082ft 488kts
13-May-17 17:28 35.829893 -87.624366 64 34942ft 487kts
13-May-17 17:29 35.880728 -87.470375 64 34936ft 488kts
13-May-17 17:30 35.931035 -87.317709 65 34935ft 488kts
13-May-17 17:31 35.981865 -87.162601 65 34939ft 488kts
13-May-17 17:32 36.032364 -87.007806 65 34943ft 488kts
13-May-17 17:33 36.082503 -86.853309 65 34944ft 488kts
13-May-17 17:34 36.131952 -86.700646 66 34991ft 494kts
13-May-17 17:35 36.183850 -86.540643 66 34994ft 508kts
13-May-17 17:36 36.236082 -86.378997 66 34997ft 506kts
13-May-17 17:37 36.287346 -86.219339 66 34994ft 506kts
13-May-17 17:38 36.339179 -86.057150 66 34996ft 506kts
13-May-17 17:39 36.390464 -85.895792 66 34930ft 506kts
13-May-17 17:40 36.441214 -85.735233 66 34960ft 507kts
13-May-17 17:41 36.492309 -85.572674 66 34990ft 506kts
13-May-17 17:42 36.543232 -85.409742 66 34994ft 506kts
13-May-17 17:43 36.593043 -85.249344 67 34993ft 506kts
13-May-17 17:44 36.643411 -85.086333 67 34994ft 506kts
13-May-17 17:45 36.691967 -84.928196 64 34998ft 468kts
13-May-17 17:46 36.738894 -84.774736 64 34998ft 476kts
13-May-17 17:47 36.785265 -84.622169 64 34998ft 475kts
13-May-17 17:48 36.831649 -84.468826 68 35009ft 488kts
13-May-17 17:49 36.874441 -84.325988 68 34968ft 506kts
13-May-17 17:50 36.923608 -84.161631 68 34973ft 504kts
13-May-17 17:51 36.972091 -83.998654 68 34973ft 505kts
13-May-17 17:52 37.020716 -83.834081 68 34970ft 505kts
13-May-17 17:53 37.068926 -83.669930 68 34973ft 504kts
13-May-17 17:54 37.112343 -83.521442 68 34965ft 506kts
13-May-17 17:55 37.160389 -83.356244 68 34969ft 506kts
13-May-17 17:56 37.207729 -83.192077 69 34971ft 506kts
13-May-17 17:57 37.255171 -83.026684 69 34970ft 506kts
13-May-17 17:58 37.302285 -82.861421 69 34968ft 506kts
13-May-17 17:59 37.349380 -82.695193 69 34967ft 506kts
13-May-17 18:00 37.396364 -82.528326 69 34969ft 506kts
13-May-17 18:01 37.442894 -82.362034 69 34970ft 506kts
13-May-17 18:02 37.488620 -82.197464 70 34968ft 506kts
13-May-17 18:03 37.534590 -82.031113 70 34968ft 507kts
13-May-17 18:04 37.580279 -81.864734 70 35012ft 507kts
13-May-17 18:05 37.625814 -81.697843 70 35019ft 506kts
13-May-17 18:06 37.671257 -81.530213 70 34975ft 507kts
13-May-17 18:07 37.716487 -81.362268 70 34965ft 507kts
13-May-17 18:08 37.761101 -81.195435 71 34960ft 507kts
13-May-17 18:09 37.813105 -81.031164 65 34968ft 507kts
13-May-17 18:10 37.870520 -80.868233 65 34972ft 507kts
13-May-17 18:11 37.927844 -80.706886 65 34973ft 507kts
13-May-17 18:12 37.985505 -80.544131 65 34971ft 507kts
13-May-17 18:13 38.043005 -80.380945 65 34969ft 507kts
13-May-17 18:14 38.099241 -80.220880 65 34967ft 508kts
13-May-17 18:15 38.156468 -80.059697 65 34968ft 508kts
13-May-17 18:16 38.214038 -79.896287 65 34970ft 508kts
13-May-17 18:17 38.271648 -79.732965 65 34971ft 507kts
13-May-17 18:18 38.327943 -79.569557 66 34599ft 511kts
13-May-17 18:19 38.384780 -79.403539 66 33382ft 513kts
13-May-17 18:20 38.428228 -79.260592 79 32104ft 510kts
13-May-17 18:21 38.459701 -79.083362 79 30363ft 513kts
13-May-17 18:22 38.490247 -78.908283 79 28566ft 513kts
13-May-17 18:23 38.518686 -78.733482 80 26575ft 498kts
13-May-17 18:24 38.545662 -78.563495 79 24569ft 489kts
13-May-17 18:25 38.572394 -78.395130 79 22584ft 489kts
13-May-17 18:26 38.600432 -78.241283 71 20888ft 488kts
13-May-17 18:27 38.651937 -78.080008 68 20880ft 485kts
13-May-17 18:28 38.700392 -77.928962 68 19199ft 457kts
13-May-17 18:29 38.755302 -77.787104 43 15296ft 456kts
13-May-17 18:30 38.829271 -77.676249 66 14351ft 375kts
13-May-17 18:31 38.868877 -77.568503 65 13134ft 322kts
13-May-17 18:32 38.903782 -77.466315 84 10992ft 307kts
13-May-17 18:33 38.875903 -77.371356 121 8923ft 283kts
13-May-17 18:34 38.841701 -77.290743 124 7196ft 264kts
13-May-17 18:35 38.806685 -77.212547 123 5430ft 246kts
13-May-17 18:36 38.773910 -77.139812 123 4096ft 215kts
13-May-17 18:37 38.728017 -77.114273 170 3602ft 202kts
13-May-17 18:38 38.672323 -77.109300 172 3164ft 181kts
13-May-17 18:39 38.628925 -77.106479 173 2698ft 140kts
13-May-17 18:40 38.582065 -77.100322 160 2412ft 173kts
13-May-17 18:41 38.573247 -77.056177 32 2425ft 155kts
13-May-17 18:42 38.610959 -77.031112 18 2429ft 147kts
13-May-17 18:43 38.648542 -77.014046 359 2408ft 146kts
13-May-17 18:44 38.688676 -77.021026 353 2426ft 146kts
13-May-17 18:45 38.729362 -77.026190 353 2229ft 149kts
13-May-17 18:46 38.769774 -77.029589 355 1426ft 144kts
13-May-17 18:47 38.809787 -77.033532 354 659ft 148kts
13-May-17 18:48 38.850540 -77.037654 354 22ft 108kts
13-May-17 18:49 38.859318 -77.040018 267 22ft 1kts
13-May-17 18:50 38.858001 -77.041770 142 22ft 10kts
13-May-17 18:51 38.854710 -77.040120 173 22ft 18kts
13-May-17 18:52 38.853223 -77.040854 254 22ft 3kts
13-May-17 18:53 38.853120 -77.041832 269 22ft 0kts
13-May-17 18:54 38.853312 -77.042393 358 22ft 0kts
13-May-17 18:55 38.853312 -77.042393 358 22ft 0kts
13-May-17 18:56 38.853312 -77.042393 358 22ft 0kts
13-May-17 18:57 38.853312 -77.042393 358 22ft 0kts
13-May-17 18:58 38.853312 -77.042393 358 22ft 0kts
13-May-17 18:59 38.853312 -77.042393 358 22ft 0kts
13-May-17 19:00 38.853312 -77.042393 358 22ft 0kts
13-May-17 19:01 38.853312 -77.042393 358 22ft 0kts
13-May-17 19:02 38.853312 -77.042393 358 22ft 0kts
13-May-17 19:03 38.853312 -77.042393 358 22ft 0kts
13-May-17 19:04 38.853312 -77.042393 358 22ft 0kts

Navigation Log

Ident Type
Flight plan parsing failed, navigation log unavailable